Time;durP1;ratioP1;P1;durP2;ratioP2;P2;SDS_P1;SDS_P2;PMS_P1;PMS_P2;Temp;Humidity;BMP_temperature;BMP_pressure;BME280_temperature;BME280_humidity;BME280_pressure;Samples;Min_cycle;Max_cycle;Signal;HPM_P1;HPM_P2
2022/03/17 00:01:21;;;;;;;26.33;17.83;;;;;;;9.55;79.68;101892.19;5053534;28;20036;-76
2022/03/17 00:03:46;;;;;;;26.30;17.73;;;;;;;9.51;80.14;101885.22;5052491;28;20078;-76
2022/03/17 00:06:13;;;;;;;27.65;18.02;;;;;;;9.51;79.77;101882.63;5053429;28;20037;-76
2022/03/17 00:08:38;;;;;;;26.83;17.50;;;;;;;9.49;80.09;101876.56;5053040;28;20025;-76
2022/03/17 00:11:04;;;;;;;30.60;18.70;;;;;;;9.46;80.39;101879.19;5052686;28;20036;-76
2022/03/17 00:13:30;;;;;;;26.65;18.35;;;;;;;9.42;80.42;101866.16;5051404;28;20063;-76
2022/03/17 00:15:56;;;;;;;27.02;18.13;;;;;;;9.42;80.62;101876.56;5052613;28;20033;-76
2022/03/17 00:18:21;;;;;;;33.00;18.30;;;;;;;9.39;80.68;101880.06;5053186;28;20036;-76
2022/03/17 00:20:47;;;;;;;27.83;18.40;;;;;;;9.38;80.75;101870.50;5053409;28;20100;-76
2022/03/17 00:23:12;;;;;;;26.70;18.42;;;;;;;9.37;81.04;101867.03;5052794;28;20029;-76
2022/03/17 00:25:38;;;;;;;31.42;19.08;;;;;;;9.34;81.28;101863.59;5052669;28;20025;-76
2022/03/17 00:28:04;;;;;;;28.90;18.33;;;;;;;9.34;81.24;101871.38;5052957;28;20029;-76
2022/03/17 00:30:29;;;;;;;27.77;18.30;;;;;;;9.32;81.24;101871.41;5052278;28;20040;-76
2022/03/17 00:32:54;;;;;;;27.85;18.58;;;;;;;9.30;81.50;101874.88;5052767;28;20443;-76
2022/03/17 00:35:35;;;;;;;30.35;18.88;;;;;;;9.28;81.57;101871.41;5053440;28;20037;-76
2022/03/17 00:38:05;;;;;;;27.42;18.27;;;;;;;9.23;82.11;101876.63;5052294;28;20099;-76
2022/03/17 00:40:30;;;;;;;32.03;18.27;;;;;;;9.21;81.86;101875.75;5052967;28;20461;-76
2022/03/17 00:42:56;;;;;;;27.08;17.95;;;;;;;9.22;82.04;101881.81;5051781;28;20051;-76
2022/03/17 00:45:24;;;;;;;29.05;17.50;;;;;;;9.22;82.38;101876.59;5051714;28;20033;-76
2022/03/17 00:47:50;;;;;;;27.00;18.65;;;;;;;9.20;82.32;101878.38;5052952;28;20043;-76
2022/03/17 00:50:15;;;;;;;28.25;18.15;;;;;;;9.14;82.64;101877.50;5052955;28;20045;-76
2022/03/17 00:52:40;;;;;;;27.80;18.48;;;;;;;9.13;82.97;101882.72;5051853;28;20072;-76
2022/03/17 00:55:06;;;;;;;28.52;18.20;;;;;;;9.16;82.90;101879.25;5052523;28;20025;-76
2022/03/17 00:57:32;;;;;;;29.38;19.02;;;;;;;9.13;82.60;101867.97;5052139;28;20055;-76
2022/03/17 00:59:58;;;;;;;30.02;19.08;;;;;;;9.16;82.84;101885.31;5052103;28;20053;-76
2022/03/17 01:02:23;;;;;;;28.00;18.25;;;;;;;9.17;82.89;101884.44;5052271;28;20090;-76
2022/03/17 01:04:48;;;;;;;26.92;18.58;;;;;;;9.16;83.01;101890.50;5052733;28;20444;-76
2022/03/17 01:07:13;;;;;;;31.27;18.52;;;;;;;9.16;83.20;101885.31;5051287;28;20144;-76
2022/03/17 01:09:39;;;;;;;29.48;18.70;;;;;;;9.17;83.48;101887.03;5052459;28;20044;-76
2022/03/17 01:12:04;;;;;;;29.13;18.17;;;;;;;9.17;83.66;101891.38;5051735;28;20107;-76
2022/03/17 01:14:30;;;;;;;30.90;18.63;;;;;;;9.20;83.55;101889.63;5051708;28;20388;-76
2022/03/17 01:16:55;;;;;;;27.65;18.75;;;;;;;9.29;83.35;101881.81;5052542;28;20176;-76
2022/03/17 01:19:21;;;;;;;29.13;19.23;;;;;;;9.34;83.36;101876.59;5051340;28;20040;-76
2022/03/17 01:21:48;;;;;;;29.35;18.63;;;;;;;9.34;83.35;101881.81;5051990;28;20027;-76
2022/03/17 01:24:14;;;;;;;30.30;19.23;;;;;;;9.36;83.16;101878.34;5052315;28;20112;-76
2022/03/17 01:26:40;;;;;;;28.88;18.58;;;;;;;9.37;83.39;101876.59;5050375;28;20135;-76
2022/03/17 01:29:05;;;;;;;28.80;18.77;;;;;;;9.39;83.64;101880.06;5052291;28;20098;-76
2022/03/17 01:31:31;;;;;;;28.13;18.38;;;;;;;9.41;83.53;101886.13;5051889;28;20468;-76
2022/03/17 01:33:57;;;;;;;28.83;18.50;;;;;;;9.43;83.25;101884.41;5043087;28;20068;-76
2022/03/17 01:36:22;;;;;;;29.30;19.65;;;;;;;9.46;83.35;101876.59;5051684;28;20072;-76
2022/03/17 01:38:48;;;;;;;28.92;18.88;;;;;;;9.53;83.63;101880.91;5050989;28;20083;-76
2022/03/17 01:41:14;;;;;;;30.77;19.23;;;;;;;9.57;83.16;101880.00;5049626;28;20083;-76
2022/03/17 01:43:39;;;;;;;32.45;19.75;;;;;;;9.58;83.42;101879.16;5050825;28;20021;-76
2022/03/17 01:46:04;;;;;;;30.15;19.55;;;;;;;9.55;83.32;101884.38;5051489;28;20036;-76
2022/03/17 01:48:30;;;;;;;30.50;19.75;;;;;;;9.54;83.52;101884.34;5051181;28;20048;-76
2022/03/17 01:50:55;;;;;;;33.63;20.05;;;;;;;9.58;83.55;101891.28;5051473;28;20458;-76
2022/03/17 01:53:23;;;;;;;30.42;19.23;;;;;;;9.60;83.44;101881.75;5051488;28;20072;-76
2022/03/17 01:55:49;;;;;;;31.08;19.33;;;;;;;9.60;83.92;101887.81;5050158;28;20041;-76
2022/03/17 01:58:14;;;;;;;37.53;19.40;;;;;;;9.61;83.72;101886.06;5050960;28;20500;-76
2022/03/17 02:00:40;;;;;;;29.13;19.15;;;;;;;9.63;83.82;101880.88;5051084;28;20025;-76
2022/03/17 02:03:06;;;;;;;27.15;18.75;;;;;;;9.61;84.04;101873.94;5050882;28;20482;-76
2022/03/17 02:05:33;;;;;;;31.92;18.48;;;;;;;9.62;84.24;101872.19;5051670;28;20060;-76
2022/03/17 02:07:58;;;;;;;30.33;19.30;;;;;;;9.60;83.99;101879.13;5050911;28;20044;-76
2022/03/17 02:10:23;;;;;;;30.00;19.05;;;;;;;9.61;84.38;101883.47;5049630;28;20519;-76
2022/03/17 02:15:34;;;;;;;31.13;20.17;;;;;;;9.61;84.60;101889.56;5050748;28;20059;-76
2022/03/17 02:18:02;;;;;;;31.02;19.95;;;;;;;9.60;84.68;101898.22;5050870;28;20489;-76
2022/03/17 02:20:28;;;;;;;28.90;19.35;;;;;;;9.61;85.30;101899.09;5051078;28;20442;-76
2022/03/17 02:25:33;;;;;;;32.13;19.33;;;;;;;9.60;84.90;101894.75;5050187;28;20020;-76
2022/03/17 02:25:42;;;;;;;28.85;19.77;;;;;;;9.58;85.26;101900.00;5051240;28;20033;-76
2022/03/17 02:28:08;;;;;;;30.95;19.55;;;;;;;9.59;85.52;101900.84;5051030;28;20480;-76
2022/03/17 02:30:37;;;;;;;32.20;19.75;;;;;;;9.59;85.32;101909.53;5050590;28;20064;-76
2022/03/17 02:33:10;;;;;;;32.22;20.70;;;;;;;9.61;85.22;101905.19;5050596;28;20033;-76
2022/03/17 02:35:37;;;;;;;32.97;20.10;;;;;;;9.61;85.73;101910.41;5050536;28;20112;-76
2022/03/17 02:38:04;;;;;;;31.33;20.50;;;;;;;9.60;86.42;101913.84;5057117;28;20073;-76
2022/03/17 02:40:30;;;;;;;31.45;20.13;;;;;;;9.60;86.50;101908.63;5064636;28;20425;-76
2022/03/17 02:42:57;;;;;;;31.83;19.98;;;;;;;9.65;87.33;101921.66;5050576;28;20495;-76
2022/03/17 02:45:22;;;;;;;33.85;21.73;;;;;;;9.66;88.00;101920.78;5050530;28;20056;-76
2022/03/17 02:47:47;;;;;;;35.60;21.63;;;;;;;9.68;88.49;101926.88;5050400;28;20099;-76
2022/03/17 02:50:13;;;;;;;40.38;23.23;;;;;;;9.73;89.98;101924.25;5050398;28;20133;-76
2022/03/17 02:52:39;;;;;;;38.63;23.88;;;;;;;9.77;90.60;101934.63;5050010;28;20248;-76
2022/03/17 02:55:06;;;;;;;43.70;24.70;;;;;;;9.78;92.45;101933.78;5051376;28;20025;-76
2022/03/17 02:57:31;;;;;;;50.70;28.20;;;;;;;9.83;94.95;101942.44;5052836;28;20068;-76
2022/03/17 02:59:56;;;;;;;52.53;28.63;;;;;;;9.83;97.11;101946.78;5041296;28;20056;-76
2022/03/17 03:02:22;;;;;;;47.67;29.20;;;;;;;9.88;97.32;101963.28;5054427;28;20090;-76
2022/03/17 03:04:48;;;;;;;34.50;23.30;;;;;;;9.85;98.92;101960.69;5053997;28;20108;-76
2022/03/17 03:07:13;;;;;;;33.40;22.17;;;;;;;9.69;100.00;101970.25;5054466;28;20432;-76
2022/03/17 03:09:39;;;;;;;32.45;19.38;;;;;;;9.58;100.00;101979.81;5054833;28;20032;-76
2022/03/17 03:12:05;;;;;;;29.85;18.83;;;;;;;9.44;100.00;101976.34;5054077;28;20017;-76
2022/03/17 03:14:30;;;;;;;28.70;19.20;;;;;;;9.36;100.00;101992.84;5054720;28;20040;-76
2022/03/17 03:16:56;;;;;;;28.60;19.25;;;;;;;9.25;100.00;102004.97;5054245;28;20031;-76
2022/03/17 03:19:21;;;;;;;27.55;18.27;;;;;;;9.14;100.00;102012.78;5053475;28;20033;-76
2022/03/17 03:21:47;;;;;;;26.20;17.95;;;;;;;9.09;100.00;102014.53;5054173;28;20036;-76
2022/03/17 03:24:13;;;;;;;26.67;17.98;;;;;;;9.01;100.00;102016.22;5054729;28;20040;-76
2022/03/17 03:26:40;;;;;;;27.38;17.70;;;;;;;8.96;100.00;102023.16;5053050;28;20048;-76
2022/03/17 03:29:13;;;;;;;27.27;18.30;;;;;;;8.92;100.00;102029.22;5054681;28;20099;-77
2022/03/17 03:31:38;;;;;;;27.40;18.40;;;;;;;8.84;100.00;102043.94;5054417;28;20384;-77
2022/03/17 03:34:04;;;;;;;28.38;19.17;;;;;;;8.71;100.00;102029.16;5053701;28;20047;-76
2022/03/17 03:39:12;;;;;;;27.02;18.85;;;;;;;8.66;100.00;102056.03;5054373;28;20086;-76
2022/03/17 03:41:38;;;;;;;29.83;19.48;;;;;;;8.61;100.00;102060.31;5053162;28;20041;-76
2022/03/17 03:44:03;;;;;;;31.75;19.92;;;;;;;8.49;100.00;102069.78;5053672;28;20392;-76
2022/03/17 03:46:29;;;;;;;28.40;19.88;;;;;;;8.47;100.00;102074.09;5053839;28;20033;-76
2022/03/17 03:48:54;;;;;;;33.92;21.98;;;;;;;8.41;100.00;102081.03;5053018;28;20029;-77
2022/03/17 03:51:19;;;;;;;32.22;21.90;;;;;;;8.38;100.00;102098.34;5053735;28;20021;-76
2022/03/17 03:56:29;;;;;;;32.00;22.08;;;;;;;8.30;100.00;102112.97;5053531;28;20052;-76
2022/03/17 03:58:55;;;;;;;34.42;22.25;;;;;;;8.25;100.00;102114.69;5053365;28;20021;-76
2022/03/17 04:01:20;;;;;;;35.55;22.98;;;;;;;8.20;100.00;102123.28;5052534;28;20072;-76
2022/03/17 04:03:45;;;;;;;35.90;22.67;;;;;;;8.14;100.00;102132.75;5053925;28;20056;-76
2022/03/17 04:06:11;;;;;;;41.10;22.75;;;;;;;8.03;100.00;102135.28;5053356;28;20021;-76
2022/03/17 04:08:36;;;;;;;43.15;23.40;;;;;;;7.88;100.00;102143.84;5052682;28;20025;-76
2022/03/17 04:11:02;;;;;;;41.42;22.17;;;;;;;7.73;100.00;102149.75;5053712;28;20032;-76
2022/03/17 04:13:27;;;;;;;36.22;20.65;;;;;;;7.63;100.00;102168.69;5052199;28;20067;-76
2022/03/17 04:15:52;;;;;;;36.88;22.67;;;;;;;7.60;100.00;102178.19;5052627;28;20025;-76
2022/03/17 04:18:18;;;;;;;39.83;23.15;;;;;;;7.56;100.00;102185.06;5053157;28;20044;-76
2022/03/17 04:20:44;;;;;;;44.10;22.98;;;;;;;7.51;100.00;102197.97;5053175;28;20033;-76
2022/03/17 04:23:09;;;;;;;43.45;21.50;;;;;;;7.43;100.00;102198.78;5052469;28;20733;-76
2022/03/17 04:25:34;;;;;;;38.03;20.05;;;;;;;7.39;100.00;102205.66;5053356;28;20096;-76
2022/03/17 04:28:00;;;;;;;33.83;19.45;;;;;;;7.29;100.00;102211.56;5059585;28;20036;-76
2022/03/17 04:30:25;;;;;;;34.15;19.50;;;;;;;7.27;100.00;102227.13;5053663;28;20074;-76
2022/03/17 04:32:50;;;;;;;31.02;18.48;;;;;;;7.23;100.00;102227.06;5053345;28;20063;-76
2022/03/17 04:35:16;;;;;;;36.20;18.98;;;;;;;7.19;100.00;102241.72;5053312;28;20033;-76
2022/03/17 04:37:41;;;;;;;38.45;19.20;;;;;;;7.19;100.00;102252.09;5051931;28;20029;-76
2022/03/17 04:40:09;;;;;;;33.38;19.33;;;;;;;7.14;100.00;102248.56;5053390;28;20575;-76
2022/03/17 04:42:34;;;;;;;33.20;19.63;;;;;;;7.12;100.00;102258.03;5052828;28;20476;-76
2022/03/17 04:45:00;;;;;;;37.60;19.92;;;;;;;7.08;100.00;102261.44;5051689;28;20079;-76
2022/03/17 04:47:25;;;;;;;37.63;20.73;;;;;;;7.12;100.00;102273.59;5052665;28;20033;-76
2022/03/17 04:49:51;;;;;;;36.50;19.98;;;;;;;7.10;100.00;102275.31;5052884;28;20396;-76
2022/03/17 04:55:00;;;;;;;37.80;16.80;;;;;;;7.02;100.00;102290.75;5053039;28;20048;-76
2022/03/17 04:57:27;;;;;;;37.80;16.05;;;;;;;6.94;100.00;102292.38;5051306;28;20036;-76
2022/03/17 04:59:52;;;;;;;31.77;16.27;;;;;;;6.89;100.00;102298.34;5052688;28;20028;-76
2022/03/17 05:02:17;;;;;;;33.55;16.55;;;;;;;6.84;100.00;102312.97;5052205;28;20138;-76
2022/03/17 05:04:42;;;;;;;34.70;17.55;;;;;;;6.80;100.00;102317.19;5052054;28;20491;-76
2022/03/17 05:07:08;;;;;;;29.13;16.02;;;;;;;6.82;100.00;102328.47;5051988;28;20032;-76
2022/03/17 05:09:33;;;;;;;30.52;15.48;;;;;;;6.81;100.00;102334.53;5052330;28;20033;-76
2022/03/17 05:11:58;;;;;;;30.73;15.00;;;;;;;6.82;100.00;102353.53;5051574;28;20029;-76
2022/03/17 05:14:24;;;;;;;29.80;12.88;;;;;;;6.75;100.00;102353.44;5052159;28;20098;-76
2022/03/17 05:16:49;;;;;;;24.15;12.10;;;;;;;6.75;100.00;102368.97;5051992;28;20028;-76
2022/03/17 05:19:14;;;;;;;24.65;10.80;;;;;;;6.70;100.00;102374.94;5050971;28;20033;-76
2022/03/17 05:21:39;;;;;;;21.55;11.02;;;;;;;6.66;100.00;102391.28;5051728;28;20037;-76
2022/03/17 05:24:05;;;;;;;21.08;9.45;;;;;;;6.58;100.00;102391.16;5052758;28;20482;-76
2022/03/17 05:26:30;;;;;;;20.88;10.63;;;;;;;6.49;100.00;102390.97;5051126;28;20041;-76
2022/03/17 05:28:56;;;;;;;14.93;8.27;;;;;;;6.46;100.00;102399.56;5050604;28;20036;-76
2022/03/17 05:31:21;;;;;;;12.32;7.40;;;;;;;6.44;100.00;102397.78;5051032;28;20035;-76
2022/03/17 05:33:46;;;;;;;18.00;6.80;;;;;;;6.42;100.00;102399.50;5042362;28;20031;-76
2022/03/17 05:36:12;;;;;;;15.98;7.65;;;;;;;6.44;100.00;102413.31;5051933;28;20040;-76
2022/03/17 05:38:37;;;;;;;17.27;7.32;;;;;;;6.44;100.00;102418.50;5051793;28;20551;-76
2022/03/17 05:41:03;;;;;;;16.42;7.80;;;;;;;6.44;99.96;102424.59;5051344;28;20029;-76
2022/03/17 05:43:28;;;;;;;14.80;7.32;;;;;;;6.48;99.58;102434.16;5051425;28;20373;-76
2022/03/17 05:45:54;;;;;;;15.45;6.75;;;;;;;6.52;98.46;102437.69;5051950;28;20033;-76
2022/03/17 05:48:19;;;;;;;16.23;6.60;;;;;;;6.59;98.69;102454.22;5050567;28;20048;-76
2022/03/17 05:50:45;;;;;;;13.05;6.25;;;;;;;6.65;97.49;102449.16;5051433;28;20504;-76
2022/03/17 05:53:10;;;;;;;12.88;6.50;;;;;;;6.67;97.17;102463.88;5051285;28;20033;-76
2022/03/17 05:55:36;;;;;;;14.77;6.72;;;;;;;6.71;97.35;102464.81;5051399;28;20039;-76
2022/03/17 05:58:02;;;;;;;13.75;7.25;;;;;;;6.72;96.30;102469.16;5051498;28;20476;-76
2022/03/17 06:00:29;;;;;;;16.13;7.40;;;;;;;6.78;94.76;102475.31;5050852;28;20029;-76
2022/03/17 06:02:57;;;;;;;11.63;7.20;;;;;;;6.76;95.58;102477.00;5051633;28;20155;-76
2022/03/17 06:05:23;;;;;;;13.55;6.95;;;;;;;6.78;95.12;102485.69;5050789;28;20028;-76
2022/03/17 06:07:50;;;;;;;8.40;6.57;;;;;;;6.80;95.21;102490.88;5050244;28;20033;-76
2022/03/17 06:10:22;;;;;;;13.25;7.30;;;;;;;6.83;95.50;102505.63;5050843;28;20424;-76
2022/03/17 06:12:51;;;;;;;11.90;7.60;;;;;;;6.83;95.33;102508.22;5051290;28;20077;-76
2022/03/17 06:15:17;;;;;;;14.85;7.90;;;;;;;6.86;95.89;102521.22;5050637;28;20365;-76
2022/03/17 06:17:48;;;;;;;11.45;6.63;;;;;;;6.80;96.57;102525.47;5050783;28;20035;-76
2022/03/17 06:20:16;;;;;;;11.75;7.13;;;;;;;6.77;96.85;102528.00;5050717;28;20021;-76
2022/03/17 06:22:43;;;;;;;16.23;6.53;;;;;;;6.72;97.21;102549.50;5050122;28;20035;-76
2022/03/17 06:25:10;;;;;;;12.38;7.38;;;;;;;6.67;97.95;102535.56;5051136;28;20477;-76
2022/03/17 06:27:36;;;;;;;13.98;7.05;;;;;;;6.63;98.10;102547.59;5051095;28;20523;-76
2022/03/17 06:30:06;;;;;;;15.65;7.82;;;;;;;6.65;97.92;102545.03;5050373;28;20029;-76
2022/03/17 06:32:33;;;;;;;18.88;7.03;;;;;;;6.71;97.35;102558.13;5051124;28;20029;-76
2022/03/17 06:34:59;;;;;;;15.68;7.18;;;;;;;6.76;98.25;102565.13;5051105;28;20032;-76
2022/03/17 06:37:24;;;;;;;11.80;6.55;;;;;;;6.82;97.75;102563.50;5049804;28;20028;-76
2022/03/17 06:39:49;;;;;;;12.25;6.22;;;;;;;6.85;97.41;102571.34;5067626;28;20016;-76
2022/03/17 06:42:15;;;;;;;11.82;6.32;;;;;;;6.86;96.56;102586.06;5051126;28;20064;-76
2022/03/17 06:44:40;;;;;;;11.27;5.10;;;;;;;6.84;94.96;102579.97;5050119;28;20167;-76
2022/03/17 06:47:05;;;;;;;12.65;5.40;;;;;;;6.85;95.21;102592.97;5051206;28;20025;-76
2022/03/17 06:49:30;;;;;;;13.05;6.05;;;;;;;6.85;93.50;102598.16;5049994;28;20382;-76
2022/03/17 06:51:56;;;;;;;13.13;6.30;;;;;;;6.88;93.89;102605.13;5049426;28;20511;-76
2022/03/17 06:54:21;;;;;;;13.32;5.18;;;;;;;6.88;94.49;102605.97;5050572;28;20029;-76
2022/03/17 06:56:47;;;;;;;13.75;6.20;;;;;;;6.91;94.47;102612.94;5049626;28;20037;-76
2022/03/17 06:59:12;;;;;;;11.48;5.70;;;;;;;6.91;93.17;102616.41;5050365;28;20033;-76
2022/03/17 07:01:37;;;;;;;13.77;6.03;;;;;;;6.94;91.63;102619.06;5050410;28;20035;-76
2022/03/17 07:04:03;;;;;;;10.23;5.72;;;;;;;6.97;91.71;102620.84;5050426;28;20308;-76
2022/03/17 07:06:28;;;;;;;9.70;5.20;;;;;;;6.99;91.71;102629.53;5050137;28;20029;-76
2022/03/17 07:08:53;;;;;;;8.75;5.05;;;;;;;7.08;90.94;102636.63;5050474;28;20106;-76
2022/03/17 07:11:21;;;;;;;8.05;5.15;;;;;;;7.08;91.38;102637.50;5049661;28;20477;-76
2022/03/17 07:13:46;;;;;;;8.13;3.92;;;;;;;7.08;89.49;102647.88;5050134;28;20021;-76
2022/03/17 07:16:12;;;;;;;9.13;3.85;;;;;;;7.13;89.65;102648.84;5050762;28;20021;-76
2022/03/17 07:18:37;;;;;;;12.10;3.30;;;;;;;7.13;88.79;102655.72;5049741;28;20427;-76
2022/03/17 07:21:03;;;;;;;10.30;2.83;;;;;;;7.13;88.03;102660.91;5051082;28;20029;-76
2022/03/17 07:23:28;;;;;;;13.10;2.85;;;;;;;7.08;87.83;102663.44;5053974;28;20397;-75
2022/03/17 07:25:53;;;;;;;9.95;3.47;;;;;;;7.07;88.45;102674.66;5062191;28;20047;-75
2022/03/17 07:28:21;;;;;;;9.35;3.55;;;;;;;7.06;88.45;102680.66;5050779;28;20032;-75
2022/03/17 07:30:46;;;;;;;10.60;3.70;;;;;;;6.99;89.10;102678.78;5050861;28;20039;-75
2022/03/17 07:33:12;;;;;;;9.20;3.80;;;;;;;6.85;89.90;102683.69;5057001;28;20016;-75
2022/03/17 07:35:38;;;;;;;9.98;3.70;;;;;;;6.83;90.46;102698.34;5054275;28;20476;-75
2022/03/17 07:38:04;;;;;;;7.75;3.40;;;;;;;6.88;91.68;102704.50;5050639;28;20025;-75
2022/03/17 07:40:29;;;;;;;12.63;2.95;;;;;;;6.93;89.92;102713.28;5049675;28;20378;-77
2022/03/17 07:42:54;;;;;;;9.43;2.83;;;;;;;7.05;89.45;102720.41;5051598;28;20017;-74
2022/03/17 07:45:20;;;;;;;12.55;2.97;;;;;;;7.13;88.14;102718.88;5055399;28;20033;-75
2022/03/17 07:47:47;;;;;;;9.95;2.72;;;;;;;7.20;88.53;102725.94;5053106;28;20039;-75
2022/03/17 07:50:12;;;;;;;10.73;2.38;;;;;;;7.24;87.85;102722.56;5039812;28;20041;-75
2022/03/17 07:52:38;;;;;;;6.72;2.15;;;;;;;7.25;86.63;102724.28;5053937;28;20465;-75
2022/03/17 07:55:04;;;;;;;8.95;1.75;;;;;;;7.37;86.44;102722.81;5066234;28;20029;-75
2022/03/17 07:57:29;;;;;;;9.70;2.00;;;;;;;7.41;86.09;102727.19;5055531;28;20465;-75
2022/03/17 07:59:54;;;;;;;10.85;1.88;;;;;;;7.45;85.95;102732.47;5057109;28;20436;-75
2022/03/17 08:02:20;;;;;;;9.63;2.00;;;;;;;7.58;85.60;102746.56;5071372;28;20166;-75
2022/03/17 08:04:48;;;;;;;7.45;1.60;;;;;;;7.66;83.84;102744.13;5073523;28;20098;-74
2022/03/17 08:07:14;;;;;;;11.90;2.40;;;;;;;7.76;84.71;102758.16;5053328;28;20025;-75
2022/03/17 08:09:39;;;;;;;10.85;2.00;;;;;;;7.77;82.49;102755.59;5053919;28;20484;-75
2022/03/17 08:12:05;;;;;;;11.90;2.10;;;;;;;7.83;81.92;102770.41;5054521;28;20115;-75
2022/03/17 08:14:31;;;;;;;11.13;2.25;;;;;;;7.82;82.12;102748.75;5063179;28;20037;-74
2022/03/17 08:16:56;;;;;;;6.55;1.98;;;;;;;7.83;82.67;102770.41;5062208;28;20035;-75
2022/03/17 08:19:22;;;;;;;10.00;1.60;;;;;;;7.80;80.86;102768.63;5053285;28;20029;-75
2022/03/17 08:21:47;;;;;;;6.10;1.55;;;;;;;7.89;81.17;102774.00;5052872;28;20478;-75
2022/03/17 08:24:13;;;;;;;9.00;1.50;;;;;;;8.00;81.01;102781.09;5053709;28;20017;-75
2022/03/17 08:26:39;;;;;;;11.55;1.55;;;;;;;8.12;78.65;102791.72;5053319;28;20039;-75
2022/03/17 08:29:05;;;;;;;6.28;1.67;;;;;;;8.25;77.69;102796.28;5053175;28;20033;-75
2022/03/17 08:31:31;;;;;;;8.60;2.00;;;;;;;8.30;76.29;102804.16;5053361;28;20028;-75
2022/03/17 08:33:56;;;;;;;8.05;1.38;;;;;;;8.41;74.91;102811.31;5053378;28;20028;-75
2022/03/17 08:36:23;;;;;;;9.57;1.50;;;;;;;8.53;74.63;102821.03;5052458;28;20465;-75
2022/03/17 08:38:49;;;;;;;10.32;2.05;;;;;;;8.63;72.19;102824.66;5053520;28;20384;-75
2022/03/17 08:41:14;;;;;;;9.02;1.33;;;;;;;8.66;71.13;102827.31;5053554;28;20031;-75
2022/03/17 08:43:39;;;;;;;8.18;1.35;;;;;;;8.75;70.44;102837.00;5052344;28;20060;-75
2022/03/17 08:51:32;;;;;;;7.07;1.85;;;;;;;8.75;69.49;102847.41;5046762;28;20071;-75
2022/03/17 08:53:57;;;;;;;7.07;1.88;;;;;;;8.93;69.76;102847.69;5071783;28;20028;-75
2022/03/17 08:56:23;;;;;;;8.27;1.63;;;;;;;8.95;67.06;102847.72;5072174;28;20476;-75
2022/03/17 08:58:48;;;;;;;12.60;2.13;;;;;;;8.93;67.41;102852.91;5072946;28;20027;-75
2022/03/17 09:01:13;;;;;;;9.25;1.88;;;;;;;8.90;67.45;102852.84;5070895;28;20044;-75
2022/03/17 09:03:39;;;;;;;6.63;2.15;;;;;;;8.86;67.50;102854.53;5071705;28;20044;-75
2022/03/17 09:06:04;;;;;;;4.65;1.27;;;;;;;8.83;66.70;102851.88;5053043;28;20031;-75
2022/03/17 09:08:29;;;;;;;10.30;2.20;;;;;;;8.87;66.88;102871.00;5052540;28;20040;-75
2022/03/17 09:10:56;;;;;;;9.45;2.13;;;;;;;8.86;67.42;102861.44;5051571;28;20067;-75
2022/03/17 09:13:25;;;;;;;15.13;1.77;;;;;;;8.91;67.13;102873.66;5052878;28;20427;-76
2022/03/17 09:15:50;;;;;;;9.38;2.10;;;;;;;8.96;65.81;102875.47;5069651;28;20487;-75
2022/03/17 09:18:16;;;;;;;7.13;1.33;;;;;;;8.99;66.68;102881.63;5071834;28;20032;-75
2022/03/17 09:20:41;;;;;;;11.75;1.80;;;;;;;9.08;65.73;102886.94;5066323;28;20485;-75
2022/03/17 09:23:07;;;;;;;13.95;1.95;;;;;;;9.05;66.18;102889.50;5054196;28;20086;-75
2022/03/17 09:25:34;;;;;;;7.65;1.75;;;;;;;9.02;65.26;102902.44;5071544;28;20381;-75
2022/03/17 09:28:00;;;;;;;12.15;1.70;;;;;;;9.06;66.71;102899.06;5070463;28;20060;-76
2022/03/17 09:30:26;;;;;;;9.43;1.42;;;;;;;9.16;66.83;102899.22;5071109;28;20477;-75
2022/03/17 09:32:54;;;;;;;8.27;2.10;;;;;;;9.27;66.59;102900.25;5066640;28;20108;-75
2022/03/17 09:35:21;;;;;;;10.82;2.40;;;;;;;9.47;66.70;102910.94;5051902;28;20025;-75
2022/03/17 09:37:46;;;;;;;11.10;1.73;;;;;;;9.58;66.05;102919.75;5052082;28;20025;-75
2022/03/17 09:40:13;;;;;;;5.43;1.70;;;;;;;9.58;62.98;102917.16;5064653;28;20349;-75
2022/03/17 09:42:38;;;;;;;7.00;1.65;;;;;;;9.61;63.86;102922.41;5066427;28;20043;-75
2022/03/17 09:45:07;;;;;;;9.73;2.60;;;;;;;9.78;64.48;102917.44;5052210;28;20489;-75
2022/03/17 09:47:36;;;;;;;10.35;2.20;;;;;;;9.95;64.62;102920.25;5051198;28;20040;-76
2022/03/17 09:50:02;;;;;;;5.70;1.42;;;;;;;9.97;62.59;102919.44;5052117;28;20099;-76
2022/03/17 09:52:29;;;;;;;8.40;1.48;;;;;;;9.98;63.01;102922.91;5053897;28;20125;-75
2022/03/17 09:54:55;;;;;;;13.02;2.28;;;;;;;9.96;62.78;102932.44;5071201;28;20469;-76
2022/03/17 09:57:20;;;;;;;9.90;1.83;;;;;;;10.01;64.30;102935.97;5065737;28;20032;-75
2022/03/17 09:59:53;;;;;;;8.48;2.45;;;;;;;9.98;63.45;102941.16;5062364;28;20078;-75
2022/03/17 10:02:20;;;;;;;9.65;1.98;;;;;;;9.93;62.97;102953.22;5051657;28;20029;-75
2022/03/17 10:04:47;;;;;;;8.65;1.85;;;;;;;9.86;62.86;102965.31;5051633;28;20032;-76
2022/03/17 10:07:14;;;;;;;10.60;1.60;;;;;;;9.80;63.43;102967.81;5050597;28;20037;-75
2022/03/17 10:09:39;;;;;;;12.98;1.95;;;;;;;9.69;63.52;102969.41;5064632;28;20085;-75
2022/03/17 10:12:09;;;;;;;9.40;1.58;;;;;;;9.72;64.72;102979.88;5064843;28;20021;-76
2022/03/17 10:14:39;;;;;;;10.20;2.00;;;;;;;9.82;64.73;102976.53;5051070;28;20445;-75
2022/03/17 10:17:06;;;;;;;12.73;1.90;;;;;;;9.79;63.14;102973.88;5051926;28;20040;-75
2022/03/17 10:19:33;;;;;;;7.03;1.40;;;;;;;9.82;63.23;102987.84;5051428;28;20056;-75
2022/03/17 10:22:14;;;;;;;8.80;1.85;;;;;;;9.83;64.20;102984.38;5057077;28;20020;-75
2022/03/17 10:24:50;;;;;;;9.65;2.38;;;;;;;9.92;63.67;102993.19;5057870;28;20404;-75
2022/03/17 10:27:15;;;;;;;13.27;2.58;;;;;;;9.85;62.14;102997.44;5051497;28;20021;-76
2022/03/17 10:29:40;;;;;;;10.27;1.90;;;;;;;9.87;63.04;103000.03;5050375;28;20031;-75
2022/03/17 10:32:08;;;;;;;11.57;1.98;;;;;;;9.88;63.01;103005.28;5052712;28;20550;-76
2022/03/17 10:34:49;;;;;;;8.73;2.13;;;;;;;10.02;63.62;103011.56;5052352;28;20078;-75
2022/03/17 10:37:16;;;;;;;10.05;1.60;;;;;;;9.97;62.06;103015.84;5059507;28;20518;-75
2022/03/17 10:39:44;;;;;;;12.45;2.10;;;;;;;10.06;62.43;103017.69;5071332;28;20416;-75
2022/03/17 10:42:12;;;;;;;9.13;1.58;;;;;;;10.06;62.67;103026.38;5065456;28;20110;-75
2022/03/17 10:44:40;;;;;;;8.75;1.60;;;;;;;10.13;62.20;103026.44;5061174;28;20388;-77
2022/03/17 10:47:06;;;;;;;10.35;1.83;;;;;;;10.14;60.85;103028.22;5051423;28;20029;-76
2022/03/17 10:49:31;;;;;;;11.90;1.95;;;;;;;10.08;60.92;103035.09;5059457;28;20053;-74
2022/03/17 10:51:57;;;;;;;8.55;1.90;;;;;;;10.06;61.11;103033.31;5054621;28;20060;-74
2022/03/17 10:54:23;;;;;;;6.85;2.10;;;;;;;10.06;61.53;103039.41;5051995;28;20026;-75
2022/03/17 10:57:12;;;;;;;13.20;2.33;;;;;;;10.02;61.71;103053.25;5070104;28;20028;-75
2022/03/17 10:59:43;;;;;;;8.30;2.00;;;;;;;9.96;62.08;103052.28;5060822;28;20044;-75
2022/03/17 11:02:10;;;;;;;6.78;2.22;;;;;;;9.96;62.17;103058.38;5068200;28;20028;-73
2022/03/17 11:04:41;;;;;;;4.78;1.75;;;;;;;9.83;61.31;103059.91;5067558;28;20039;-76
2022/03/17 11:07:13;;;;;;;6.07;1.80;;;;;;;9.81;61.40;103066.84;5069839;28;20063;-74
2022/03/17 11:09:40;;;;;;;7.10;2.10;;;;;;;9.85;62.23;103073.84;5051698;28;20036;-74
2022/03/17 11:12:10;;;;;;;18.65;2.90;;;;;;;10.08;62.14;103079.41;5061661;28;20400;-75
2022/03/17 11:14:41;;;;;;;4.85;1.52;;;;;;;10.14;58.41;103080.34;5047464;28;20080;-75
2022/03/17 11:17:09;;;;;;;9.95;1.70;;;;;;;10.29;58.40;103080.56;5053191;28;20033;-74
2022/03/17 11:19:36;;;;;;;5.97;2.20;;;;;;;10.51;57.88;103085.22;5054971;28;20121;-75
2022/03/17 11:22:08;;;;;;;4.65;1.45;;;;;;;10.64;57.93;103087.97;5072475;28;20028;-75
2022/03/17 11:24:34;;;;;;;6.25;1.63;;;;;;;10.84;57.97;103083.88;5061319;28;20025;-75
2022/03/17 11:27:13;;;;;;;4.13;1.80;;;;;;;11.00;57.38;103088.41;5063380;28;20387;-75
2022/03/17 11:29:47;;;;;;;9.43;2.20;;;;;;;11.06;56.48;103082.38;5074438;28;20483;-75
2022/03/17 11:32:28;;;;;;;7.25;2.08;;;;;;;11.04;56.57;103093.66;5074145;28;20036;-74
2022/03/17 11:35:09;;;;;;;11.07;2.55;;;;;;;11.02;55.99;103094.50;5054429;28;20061;-75